Time;durP1;ratioP1;P1;durP2;ratioP2;P2;SDS_P1;SDS_P2;PMS_P1;PMS_P2;Temp;Humidity;BMP_temperature;BMP_pressure;BME280_temperature;BME280_humidity;BME280_pressure;Samples;Min_cycle;Max_cycle;Signal;HPM_P1;HPM_P2
2023/02/04 00:00:19;;;;;;;15.02;2.92;;;;;;;11.65;57.45;103142.72;4966390;28;113683;-71
2023/02/04 00:02:46;;;;;;;20.25;2.65;;;;;;;11.64;57.55;103146.28;4981604;28;122810;-72
2023/02/04 00:05:16;;;;;;;14.55;3.10;;;;;;;11.62;57.70;103145.41;4962923;28;123590;-71
2023/02/04 00:07:43;;;;;;;15.52;2.92;;;;;;;11.60;57.54;103145.47;4960171;28;114510;-72
2023/02/04 00:10:10;;;;;;;13.45;2.58;;;;;;;11.59;57.54;103148.13;4962156;28;113473;-72
2023/02/04 00:12:37;;;;;;;16.30;3.03;;;;;;;11.58;57.80;103149.88;4954985;28;123929;-71
2023/02/04 00:15:05;;;;;;;17.67;3.67;;;;;;;11.57;57.83;103160.53;4957092;28;123713;-71
2023/02/04 00:17:32;;;;;;;15.50;3.05;;;;;;;11.54;57.81;103158.78;4966200;28;114095;-72
2023/02/04 00:19:59;;;;;;;15.43;2.90;;;;;;;11.53;57.93;103159.69;4981927;28;113535;-72
2023/02/04 00:22:27;;;;;;;18.73;2.80;;;;;;;11.52;57.96;103165.00;4957189;28;124821;-70
2023/02/04 00:24:55;;;;;;;12.82;2.50;;;;;;;11.52;58.13;103162.38;4963626;28;123464;-69
2023/02/04 00:27:22;;;;;;;15.60;2.70;;;;;;;11.52;57.95;103162.38;4975244;28;114115;-72
2023/02/04 00:29:49;;;;;;;12.07;2.30;;;;;;;11.49;58.07;103164.16;4978689;28;113151;-72
2023/02/04 00:32:16;;;;;;;17.42;2.50;;;;;;;11.48;58.28;103165.03;4975981;28;123789;-70
2023/02/04 00:34:43;;;;;;;20.08;2.88;;;;;;;11.47;58.39;103160.66;4956001;28;122794;-72
2023/02/04 00:37:10;;;;;;;19.63;3.35;;;;;;;11.43;58.25;103164.25;4960721;28;115532;-69
2023/02/04 00:39:37;;;;;;;13.85;2.80;;;;;;;11.42;58.34;103173.06;4960360;28;115233;-72
2023/02/04 00:42:05;;;;;;;17.48;2.70;;;;;;;11.42;58.49;103167.78;4958213;28;124689;-70
2023/02/04 00:44:35;;;;;;;11.65;2.50;;;;;;;11.42;58.35;103178.38;4973295;28;122617;-69
2023/02/04 00:47:03;;;;;;;17.13;2.85;;;;;;;11.41;58.55;103179.25;4978127;28;114136;-69
2023/02/04 00:49:32;;;;;;;12.43;2.88;;;;;;;11.40;58.50;103185.50;4966573;28;114984;-69
2023/02/04 00:51:59;;;;;;;21.08;2.88;;;;;;;11.40;58.52;103190.78;4978677;28;123524;-70
2023/02/04 00:54:27;;;;;;;17.55;2.70;;;;;;;11.39;58.68;103183.72;4963461;28;123926;-72
2023/02/04 00:56:54;;;;;;;17.73;2.40;;;;;;;11.38;58.67;103181.97;4965598;28;114397;-72
2023/02/04 00:59:21;;;;;;;16.98;2.67;;;;;;;11.37;58.66;103185.50;4959675;28;114185;-70
2023/02/04 01:01:48;;;;;;;16.10;2.60;;;;;;;11.36;58.62;103191.72;4945513;28;123951;-69
2023/02/04 01:04:15;;;;;;;19.55;2.97;;;;;;;11.36;58.62;103194.38;4967106;28;123954;-72
2023/02/04 01:06:43;;;;;;;23.20;2.90;;;;;;;11.34;58.56;103201.47;4964684;28;113909;-72
2023/02/04 01:09:10;;;;;;;17.95;3.00;;;;;;;11.33;58.81;103197.06;4959585;28;114817;-72
2023/02/04 01:11:37;;;;;;;14.95;2.95;;;;;;;11.32;58.91;103197.97;4966724;28;125352;-72
2023/02/04 01:14:05;;;;;;;17.98;2.97;;;;;;;11.30;58.95;103211.25;4960497;28;123781;-72
2023/02/04 01:16:32;;;;;;;18.77;3.03;;;;;;;11.30;59.02;103210.34;4974946;28;115008;-72
2023/02/04 01:18:59;;;;;;;12.80;2.13;;;;;;;11.29;58.69;103213.91;4957111;28;114061;-73
2023/02/04 01:21:27;;;;;;;14.38;2.63;;;;;;;11.28;58.94;103217.44;4976722;28;123498;-70
2023/02/04 01:23:54;;;;;;;11.02;2.40;;;;;;;11.24;58.65;103216.59;4964983;28;124419;-69
2023/02/04 01:26:21;;;;;;;14.38;2.75;;;;;;;11.23;58.63;103216.63;4963937;28;115075;-70
2023/02/04 01:28:49;;;;;;;12.45;2.55;;;;;;;11.19;58.88;103222.81;4962670;28;115567;-69
2023/02/04 01:31:16;;;;;;;14.13;2.53;;;;;;;11.16;58.79;103222.88;4967286;28;124254;-70
2023/02/04 01:33:43;;;;;;;11.80;2.58;;;;;;;11.10;58.62;103222.03;4954524;28;123177;-72
2023/02/04 01:36:11;;;;;;;14.60;2.63;;;;;;;11.07;58.71;103224.69;4959134;28;113957;-72
2023/02/04 01:38:38;;;;;;;11.57;2.22;;;;;;;11.02;58.86;103223.88;4975352;28;113280;-72
2023/02/04 01:41:06;;;;;;;21.33;2.92;;;;;;;10.98;58.71;103235.41;4970433;28;123660;-71
2023/02/04 01:43:33;;;;;;;12.82;2.70;;;;;;;10.96;58.94;103228.34;4982804;28;123802;-71
2023/02/04 01:46:01;;;;;;;18.90;2.90;;;;;;;10.92;59.07;103235.44;4966585;28;114019;-72
2023/02/04 01:48:28;;;;;;;13.85;2.45;;;;;;;10.90;59.09;103226.63;4967907;28;114752;-72
2023/02/04 01:51:06;;;;;;;19.55;2.97;;;;;;;10.87;59.19;103231.97;4974062;28;123278;-72
2023/02/04 01:53:34;;;;;;;13.75;2.47;;;;;;;10.86;59.34;103240.78;4974759;28;124135;-71
2023/02/04 01:56:19;;;;;;;14.07;2.50;;;;;;;10.84;59.25;103247.88;4964800;28;114152;-71
2023/02/04 01:58:47;;;;;;;19.87;2.83;;;;;;;10.82;59.39;103254.97;4959477;28;112888;-72
2023/02/04 02:01:33;;;;;;;15.25;2.50;;;;;;;10.79;59.58;103257.63;4965746;28;123888;-71
2023/02/04 02:04:01;;;;;;;11.45;2.80;;;;;;;10.78;59.55;103258.53;4955916;28;123636;-72
2023/02/04 02:06:29;;;;;;;16.38;2.30;;;;;;;10.77;59.64;103254.13;4974459;28;113009;-70
2023/02/04 02:08:57;;;;;;;12.98;2.22;;;;;;;10.75;59.56;103247.94;4961984;28;113239;-70
2023/02/04 02:11:25;;;;;;;17.35;2.88;;;;;;;10.74;59.67;103251.47;4958272;28;123826;-70
2023/02/04 02:13:53;;;;;;;20.45;2.75;;;;;;;10.73;59.79;103249.72;4964183;28;124058;-70
2023/02/04 02:16:21;;;;;;;20.88;2.95;;;;;;;10.71;59.59;103252.38;4957215;28;115346;-70
2023/02/04 02:18:49;;;;;;;16.92;2.55;;;;;;;10.69;59.50;103259.47;4969839;28;114892;-70
2023/02/04 02:21:23;;;;;;;19.67;2.95;;;;;;;10.66;59.62;103265.69;4963619;28;123205;-70
2023/02/04 02:23:53;;;;;;;20.17;3.33;;;;;;;10.63;59.76;103265.69;4983365;28;123417;-70
2023/02/04 02:26:22;;;;;;;22.38;3.20;;;;;;;10.60;59.81;103276.28;4961590;28;114418;-70
2023/02/04 02:28:50;;;;;;;17.35;2.80;;;;;;;10.59;59.81;103279.84;4965434;28;113712;-70
2023/02/04 02:31:19;;;;;;;14.35;3.05;;;;;;;10.58;60.13;103278.06;4967021;28;124602;-70
2023/02/04 02:33:48;;;;;;;15.73;2.92;;;;;;;10.58;59.98;103283.38;4961505;28;123690;-71
2023/02/04 02:36:16;;;;;;;16.52;3.50;;;;;;;10.58;60.11;103283.38;4976540;28;114536;-70
2023/02/04 02:38:43;;;;;;;17.33;3.00;;;;;;;10.59;60.11;103278.97;4962925;28;113565;-70
2023/02/04 02:41:10;;;;;;;21.35;3.00;;;;;;;10.57;60.24;103281.63;4974013;28;123017;-70
2023/02/04 02:43:38;;;;;;;15.70;3.05;;;;;;;10.57;60.47;103292.22;4975171;28;124592;-70
2023/02/04 02:46:05;;;;;;;17.73;3.17;;;;;;;10.57;60.09;103286.94;4966260;28;113731;-70
2023/02/04 02:48:33;;;;;;;16.55;3.00;;;;;;;10.57;60.19;103286.94;4959003;28;113669;-70
2023/02/04 02:51:00;;;;;;;17.67;2.83;;;;;;;10.58;60.38;103283.38;4961829;28;122451;-70
2023/02/04 02:53:27;;;;;;;16.52;3.00;;;;;;;10.58;60.38;103286.03;4981375;28;124487;-70
2023/02/04 02:55:55;;;;;;;17.95;3.00;;;;;;;10.58;60.45;103283.38;4961890;28;113447;-70
2023/02/04 02:58:31;;;;;;;22.42;3.72;;;;;;;10.58;60.48;103283.38;4965164;28;114196;-71
2023/02/04 03:01:01;;;;;;;18.13;3.17;;;;;;;10.57;60.63;103281.63;4975784;28;123852;-70
2023/02/04 03:03:34;;;;;;;19.75;3.10;;;;;;;10.57;60.70;103281.63;4978023;28;123479;-70
2023/02/04 03:06:14;;;;;;;19.02;3.25;;;;;;;10.55;60.62;103286.06;4958194;28;115356;-70
2023/02/04 03:08:43;;;;;;;26.80;3.67;;;;;;;10.55;60.45;103288.72;4974124;28;114676;-70
2023/02/04 03:11:10;;;;;;;14.35;2.83;;;;;;;10.54;60.69;103286.94;4964319;28;124393;-70
2023/02/04 03:13:38;;;;;;;21.17;3.70;;;;;;;10.55;60.70;103288.72;4974928;28;123380;-70
2023/02/04 03:16:06;;;;;;;15.30;3.28;;;;;;;10.54;60.67;103292.25;4977518;28;114349;-70
2023/02/04 03:18:35;;;;;;;19.40;3.63;;;;;;;10.54;60.80;103292.25;4978302;28;113978;-70
2023/02/04 03:21:04;;;;;;;18.45;3.50;;;;;;;10.52;60.78;103294.88;4965243;28;124834;-70
2023/02/04 03:23:33;;;;;;;19.60;3.20;;;;;;;10.51;60.58;103297.56;4957803;28;123740;-70
2023/02/04 03:26:03;;;;;;;20.52;3.55;;;;;;;10.49;60.66;103299.31;4959688;28;114661;-70
2023/02/04 03:28:32;;;;;;;21.48;3.40;;;;;;;10.47;60.67;103301.09;4970817;28;113527;-70
2023/02/04 03:30:59;;;;;;;18.90;3.35;;;;;;;10.45;60.73;103298.50;4958791;28;123883;-70
2023/02/04 03:33:30;;;;;;;24.13;3.60;;;;;;;10.43;60.52;103302.00;4978225;28;124321;-70
2023/02/04 03:35:58;;;;;;;17.17;3.20;;;;;;;10.42;60.66;103303.78;4973905;28;113281;-70
2023/02/04 03:38:25;;;;;;;17.10;3.40;;;;;;;10.40;60.46;103304.69;4966694;28;113563;-70
2023/02/04 03:40:52;;;;;;;16.45;3.28;;;;;;;10.37;60.49;103320.59;4964925;28;123498;-70
2023/02/04 03:43:19;;;;;;;14.15;3.22;;;;;;;10.35;60.52;103317.06;4967861;28;124040;-70
2023/02/04 03:45:46;;;;;;;18.83;3.65;;;;;;;10.32;60.54;103321.50;4958261;28;114576;-70
2023/02/04 03:48:13;;;;;;;16.27;3.33;;;;;;;10.30;60.46;103320.63;4969049;28;113944;-70
2023/02/04 03:50:41;;;;;;;24.17;4.40;;;;;;;10.29;60.52;103318.81;4959201;28;123132;-70
2023/02/04 03:53:08;;;;;;;16.75;3.47;;;;;;;10.28;60.80;103322.38;4953293;28;124692;-73
2023/02/04 03:55:35;;;;;;;15.43;3.30;;;;;;;10.27;60.81;103331.19;4960441;28;115087;-73
2023/02/04 03:58:03;;;;;;;22.27;4.00;;;;;;;10.27;60.56;103325.03;4959156;28;115922;-73
2023/02/04 04:00:31;;;;;;;20.67;3.50;;;;;;;10.26;60.64;103326.75;4964129;28;123779;-72
2023/02/04 04:02:59;;;;;;;21.40;4.35;;;;;;;10.26;60.61;103321.47;4965705;28;123767;-72
2023/02/04 04:05:27;;;;;;;17.77;4.18;;;;;;;10.25;60.88;103325.03;4958726;28;113297;-72
2023/02/04 04:07:54;;;;;;;23.27;4.40;;;;;;;10.25;60.43;103322.38;4959524;28;114412;-72
2023/02/04 04:10:22;;;;;;;16.83;3.45;;;;;;;10.25;60.52;103318.84;4965461;28;123240;-72
2023/02/04 04:12:49;;;;;;;20.15;4.40;;;;;;;10.26;60.63;103321.47;4960042;28;123817;-72
2023/02/04 04:15:16;;;;;;;19.55;4.28;;;;;;;10.25;60.60;103317.06;4961063;28;114056;-72
2023/02/04 04:17:43;;;;;;;21.55;4.43;;;;;;;10.23;60.71;103321.50;4982077;28;114229;-72
2023/02/04 04:20:11;;;;;;;26.58;5.22;;;;;;;10.24;60.83;103320.59;4976255;28;124077;-70
2023/02/04 04:22:39;;;;;;;22.17;4.05;;;;;;;10.22;60.76;103322.38;4958001;28;123699;-71
2023/02/04 04:25:06;;;;;;;22.23;4.40;;;;;;;10.21;60.85;103325.91;4961148;28;113776;-71
2023/02/04 04:27:33;;;;;;;23.20;4.32;;;;;;;10.21;60.95;103325.91;4966251;28;114218;-70
2023/02/04 04:30:01;;;;;;;19.77;4.63;;;;;;;10.21;60.70;103331.22;4977182;28;123506;-71
2023/02/04 04:32:28;;;;;;;27.55;4.88;;;;;;;10.21;60.89;103333.88;4955484;28;124594;-71
2023/02/04 04:34:56;;;;;;;21.23;4.45;;;;;;;10.20;60.89;103342.69;4962017;28;114293;-70
2023/02/04 04:37:23;;;;;;;25.63;5.00;;;;;;;10.21;60.98;103339.16;4958863;28;113813;-71
2023/02/04 04:39:50;;;;;;;23.08;4.80;;;;;;;10.19;60.92;103343.59;4973269;28;123931;-71
2023/02/04 04:42:17;;;;;;;23.45;4.95;;;;;;;10.19;61.03;103327.69;4957641;28;123680;-70
2023/02/04 04:44:44;;;;;;;23.60;4.80;;;;;;;10.19;61.05;103338.28;4980063;28;116283;-71
2023/02/04 04:47:11;;;;;;;25.58;4.85;;;;;;;10.19;60.96;103338.28;4960081;28;114721;-71
2023/02/04 04:49:38;;;;;;;22.08;5.03;;;;;;;10.19;61.01;103335.63;4959862;28;125891;-71
2023/02/04 04:52:05;;;;;;;18.10;4.68;;;;;;;10.21;60.79;103341.81;4975074;28;123851;-71
2023/02/04 04:54:32;;;;;;;21.13;4.82;;;;;;;10.20;61.16;103329.44;4960235;28;115410;-70
2023/02/04 04:56:59;;;;;;;20.80;4.57;;;;;;;10.21;60.91;103338.25;4979048;28;113351;-70
2023/02/04 04:59:26;;;;;;;21.67;4.43;;;;;;;10.19;61.00;103330.34;4956523;28;123307;-70
2023/02/04 05:01:53;;;;;;;25.58;5.28;;;;;;;10.17;61.07;103329.47;4954736;28;122986;-70
2023/02/04 05:04:20;;;;;;;22.58;4.40;;;;;;;10.16;60.95;103335.63;4960884;28;113685;-71
2023/02/04 05:06:48;;;;;;;24.20;5.65;;;;;;;10.16;61.04;103330.34;4956561;28;113762;-71
2023/02/04 05:09:16;;;;;;;29.70;4.93;;;;;;;10.15;60.79;103336.50;4957078;28;124601;-71
2023/02/04 05:11:43;;;;;;;28.30;5.13;;;;;;;10.14;60.59;103332.13;4959275;28;122798;-71
2023/02/04 05:14:10;;;;;;;35.33;6.28;;;;;;;10.12;60.83;103347.13;4960291;28;113979;-71
2023/02/04 05:16:37;;;;;;;25.85;4.95;;;;;;;10.11;60.94;103345.34;4956708;28;114010;-71
2023/02/04 05:19:04;;;;;;;26.52;5.50;;;;;;;10.11;60.89;103350.66;4959469;28;124348;-71
2023/02/04 05:21:31;;;;;;;27.83;5.05;;;;;;;10.11;61.15;103350.66;4954747;28;124189;-70
2023/02/04 05:23:59;;;;;;;22.00;5.07;;;;;;;10.10;61.12;103360.38;4980967;28;114828;-70
2023/02/04 05:26:26;;;;;;;26.63;5.63;;;;;;;10.09;60.89;103357.72;4976310;28;114276;-70
2023/02/04 05:29:01;;;;;;;24.88;5.38;;;;;;;10.06;60.82;103363.03;4956156;28;124237;-71
2023/02/04 05:31:28;;;;;;;27.63;5.30;;;;;;;10.07;60.86;103367.44;4969796;28;123419;-71
2023/02/04 05:33:55;;;;;;;20.38;4.88;;;;;;;10.05;61.03;103371.84;4964361;28;115562;-71
2023/02/04 05:36:23;;;;;;;27.02;6.10;;;;;;;10.05;61.10;103378.03;4982043;28;114968;-71
2023/02/04 05:38:50;;;;;;;27.63;5.65;;;;;;;10.05;61.13;103377.16;4962343;28;124541;-71
2023/02/04 05:41:17;;;;;;;16.70;4.88;;;;;;;10.05;61.26;103372.72;4963173;28;124973;-73
2023/02/04 05:43:44;;;;;;;18.23;4.90;;;;;;;10.07;60.85;103375.38;4959326;28;114116;-72
2023/02/04 05:46:11;;;;;;;28.55;6.10;;;;;;;10.06;61.14;103378.94;4976739;28;113854;-72
2023/02/04 05:48:39;;;;;;;25.20;5.25;;;;;;;10.08;61.08;103387.75;4959654;28;123784;-72
2023/02/04 05:51:06;;;;;;;20.40;5.03;;;;;;;10.09;61.13;103389.50;4969741;28;123786;-73
2023/02/04 05:53:33;;;;;;;27.00;5.15;;;;;;;10.10;61.06;103391.28;4964745;28;114370;-72
2023/02/04 05:56:00;;;;;;;25.25;5.53;;;;;;;10.11;61.17;103387.72;4980200;28;112668;-72
2023/02/04 05:58:32;;;;;;;23.40;4.93;;;;;;;10.11;61.18;103399.22;4972451;28;123908;-72
2023/02/04 06:01:00;;;;;;;19.23;4.82;;;;;;;10.11;61.16;103399.22;4961700;28;126089;-72
2023/02/04 06:03:28;;;;;;;27.02;5.65;;;;;;;10.11;61.12;103393.03;4963266;28;114607;-72
2023/02/04 06:05:55;;;;;;;18.77;5.88;;;;;;;10.12;61.24;103402.75;4976073;28;113866;-72
2023/02/04 06:08:23;;;;;;;24.10;5.43;;;;;;;10.12;61.26;103394.81;4961847;28;123853;-72
2023/02/04 06:10:50;;;;;;;24.10;5.60;;;;;;;10.14;61.12;103393.03;4971522;28;123805;-72
2023/02/04 06:13:17;;;;;;;21.60;5.30;;;;;;;10.14;61.19;103399.19;4962512;28;113621;-72
2023/02/04 06:15:44;;;;;;;26.98;5.40;;;;;;;10.14;61.16;103404.50;4943706;28;114077;-72
2023/02/04 06:18:12;;;;;;;23.30;5.70;;;;;;;10.15;61.22;103402.72;4963251;28;123775;-72
2023/02/04 06:20:39;;;;;;;24.00;5.10;;;;;;;10.17;61.17;103414.22;4963817;28;123084;-72
2023/02/04 06:23:07;;;;;;;23.00;5.05;;;;;;;10.19;61.25;103406.25;4962362;28;115403;-72
2023/02/04 06:25:34;;;;;;;24.00;4.78;;;;;;;10.20;61.22;103419.50;4963117;28;114752;-72
2023/02/04 06:28:01;;;;;;;23.85;5.07;;;;;;;10.20;61.19;103416.84;4959109;28;124427;-72
2023/02/04 06:30:28;;;;;;;25.45;5.80;;;;;;;10.20;61.02;103411.53;4950927;28;124220;-72
2023/02/04 06:32:55;;;;;;;22.23;5.10;;;;;;;10.19;61.47;103417.75;4962578;28;114458;-69
2023/02/04 06:35:22;;;;;;;22.90;5.47;;;;;;;10.19;61.39;103430.97;4962646;28;115064;-69
2023/02/04 06:37:50;;;;;;;20.52;5.72;;;;;;;10.19;61.43;103433.63;4979867;28;124011;-70
2023/02/04 06:40:17;;;;;;;27.85;5.85;;;;;;;10.19;61.46;103422.13;4962941;28;123976;-72
2023/02/04 06:42:44;;;;;;;24.60;6.50;;;;;;;10.19;61.59;103433.63;4962799;28;114256;-72
2023/02/04 06:45:11;;;;;;;27.15;5.80;;;;;;;10.21;61.58;103437.16;4964242;28;114589;-73
2023/02/04 06:47:38;;;;;;;23.48;5.75;;;;;;;10.21;61.61;103437.16;4943758;28;123749;-73
2023/02/04 06:50:06;;;;;;;28.02;5.93;;;;;;;10.22;61.64;103438.03;4958319;28;124564;-74
2023/02/04 06:52:33;;;;;;;28.52;5.63;;;;;;;10.21;61.64;103437.16;4976309;28;113239;-74
2023/02/04 06:55:00;;;;;;;21.65;5.22;;;;;;;10.21;61.42;103447.75;4958099;28;113171;-74
2023/02/04 06:57:27;;;;;;;20.95;5.55;;;;;;;10.22;61.64;103453.91;4959022;28;125162;-73
2023/02/04 06:59:54;;;;;;;22.83;5.70;;;;;;;10.21;61.56;103453.06;4966218;28;124286;-74
2023/02/04 07:02:21;;;;;;;26.42;5.93;;;;;;;10.21;61.71;103447.75;4957055;28;114097;-73
2023/02/04 07:04:48;;;;;;;28.48;6.90;;;;;;;10.22;61.75;103454.78;4975411;28;113420;-73
2023/02/04 07:07:15;;;;;;;29.38;6.82;;;;;;;10.20;61.58;103456.56;4958670;28;124046;-73
2023/02/04 07:09:43;;;;;;;31.17;7.65;;;;;;;10.19;61.63;103460.13;4976083;28;122870;-73
2023/02/04 07:12:10;;;;;;;28.55;7.13;;;;;;;10.18;61.71;103468.94;4963694;28;114579;-72
2023/02/04 07:14:37;;;;;;;28.90;6.78;;;;;;;10.19;61.83;103469.81;4967045;28;115654;-72
2023/02/04 07:17:04;;;;;;;32.53;7.30;;;;;;;10.20;61.99;103461.00;4965566;28;123277;-73
2023/02/04 07:19:32;;;;;;;30.25;7.32;;;;;;;10.20;61.92;103472.47;4980265;28;123781;-73
2023/02/04 07:21:59;;;;;;;28.45;7.72;;;;;;;10.20;61.96;103477.75;4960516;28;113066;-73
2023/02/04 07:24:27;;;;;;;27.88;7.35;;;;;;;10.18;61.83;103474.22;4961304;28;114107;-73
2023/02/04 07:26:54;;;;;;;36.92;8.35;;;;;;;10.18;62.12;103479.53;4977456;28;123591;-73
2023/02/04 07:29:21;;;;;;;31.05;7.32;;;;;;;10.17;61.95;103472.47;4968602;28;122995;-72
2023/02/04 07:31:52;;;;;;;41.47;8.15;;;;;;;10.19;61.94;103481.31;4959873;28;114014;-72
2023/02/04 07:34:20;;;;;;;30.83;8.32;;;;;;;10.21;62.17;103479.53;4961378;28;113933;-74
2023/02/04 07:36:47;;;;;;;35.05;7.97;;;;;;;10.21;62.10;103490.13;4960319;28;123315;-73
2023/02/04 07:39:14;;;;;;;32.53;7.32;;;;;;;10.22;62.04;103494.53;4952238;28;123203;-74
2023/02/04 07:41:41;;;;;;;34.42;7.80;;;;;;;10.24;62.08;103498.06;4969813;28;113544;-74
2023/02/04 07:44:11;;;;;;;33.60;7.80;;;;;;;10.25;62.34;103502.47;4992062;28;113762;-74
2023/02/04 07:46:38;;;;;;;38.35;9.15;;;;;;;10.26;62.27;103509.53;4990279;28;124324;-74
2023/02/04 07:49:05;;;;;;;37.70;8.80;;;;;;;10.27;62.18;103506.00;4971977;28;123626;-74
2023/02/04 07:51:32;;;;;;;25.27;7.32;;;;;;;10.29;62.28;103503.38;4978267;28;114262;-74
2023/02/04 07:53:59;;;;;;;35.85;8.70;;;;;;;10.31;62.34;103505.16;4961805;28;114246;-74
2023/02/04 07:56:26;;;;;;;33.58;8.25;;;;;;;10.33;62.42;103511.31;4962975;28;124947;-74
2023/02/04 07:58:54;;;;;;;35.78;8.68;;;;;;;10.37;62.25;103511.31;4953942;28;124212;-74
2023/02/04 08:01:21;;;;;;;37.72;8.30;;;;;;;10.38;62.25;103515.72;4964766;28;114481;-74
2023/02/04 08:03:48;;;;;;;31.77;7.78;;;;;;;10.41;62.28;103523.69;4962838;28;114513;-74
2023/02/04 08:06:15;;;;;;;27.40;7.97;;;;;;;10.42;62.46;103528.97;4960387;28;123744;-75
2023/02/04 08:08:42;;;;;;;30.48;8.23;;;;;;;10.45;62.42;103529.00;4960686;28;124606;-74
2023/02/04 08:11:09;;;;;;;33.33;8.05;;;;;;;10.47;62.32;103523.66;4978670;28;113973;-75
2023/02/04 08:13:36;;;;;;;36.50;9.10;;;;;;;10.49;62.35;103533.41;4956130;28;114352;-74
2023/02/04 08:16:04;;;;;;;28.42;7.97;;;;;;;10.51;62.26;103536.06;4972922;28;123928;-75
2023/02/04 08:18:31;;;;;;;30.70;8.27;;;;;;;10.52;62.38;103537.81;4963097;28;123981;-75
2023/02/04 08:21:00;;;;;;;27.08;8.48;;;;;;;10.56;62.34;103543.97;4964925;28;113470;-74
2023/02/04 08:23:27;;;;;;;25.25;7.65;;;;;;;10.56;62.63;103536.91;4954748;28;114924;-74
2023/02/04 08:25:54;;;;;;;29.30;7.50;;;;;;;10.60;62.67;103546.59;4956179;28;123993;-74
2023/02/04 08:28:21;;;;;;;26.70;8.50;;;;;;;10.62;62.66;103539.53;4957928;28;123823;-74
2023/02/04 08:30:48;;;;;;;24.90;7.57;;;;;;;10.65;62.45;103539.53;4965334;28;114317;-74
2023/02/04 08:33:15;;;;;;;29.52;8.77;;;;;;;10.68;62.57;103539.53;4939573;28;113559;-74
2023/02/04 08:35:42;;;;;;;29.48;7.85;;;;;;;10.70;62.71;103537.78;4968542;28;124323;-74
2023/02/04 08:38:10;;;;;;;29.50;7.60;;;;;;;10.71;62.38;103539.53;4960354;28;123682;-74
2023/02/04 08:40:37;;;;;;;26.40;7.63;;;;;;;10.75;62.32;103550.13;4959411;28;113074;-74
2023/02/04 08:43:04;;;;;;;23.25;7.60;;;;;;;10.77;62.30;103553.66;4960788;28;114034;-73
2023/02/04 08:45:31;;;;;;;29.77;7.30;;;;;;;10.79;62.51;103549.22;4963423;28;124039;-74
2023/02/04 08:47:58;;;;;;;23.80;7.47;;;;;;;10.82;62.54;103551.88;4960342;28;124313;-73
2023/02/04 08:50:27;;;;;;;31.15;7.90;;;;;;;10.84;62.46;103552.75;4954370;28;115301;-74
2023/02/04 08:52:54;;;;;;;28.90;7.55;;;;;;;10.87;62.65;103555.41;4970930;28;114487;-74
2023/02/04 08:55:21;;;;;;;27.33;7.60;;;;;;;10.91;62.48;103562.47;4968426;28;123720;-74
2023/02/04 08:57:48;;;;;;;30.98;7.05;;;;;;;10.93;62.48;103565.13;4957176;28;124408;-74
2023/02/04 09:00:16;;;;;;;26.25;7.03;;;;;;;10.97;62.52;103570.41;4988806;28;114030;-74
2023/02/04 09:02:43;;;;;;;29.90;7.55;;;;;;;10.99;62.63;103571.28;4957867;28;114833;-74
2023/02/04 09:05:10;;;;;;;27.90;7.45;;;;;;;11.02;62.50;103565.97;4962818;28;124627;-74
2023/02/04 09:07:37;;;;;;;26.52;7.82;;;;;;;11.06;62.50;103567.72;4969005;28;124418;-74
2023/02/04 09:10:04;;;;;;;32.17;7.53;;;;;;;11.09;62.72;103573.03;4963319;28;113756;-74
2023/02/04 09:12:32;;;;;;;31.00;7.60;;;;;;;11.14;62.60;103580.09;4979543;28;114587;-74
2023/02/04 09:14:59;;;;;;;30.48;7.40;;;;;;;11.19;62.50;103578.28;4964939;28;124379;-73
2023/02/04 09:17:26;;;;;;;27.67;8.10;;;;;;;11.25;62.35;103588.88;4967066;28;123866;-74
2023/02/04 09:19:53;;;;;;;31.65;8.10;;;;;;;11.28;62.29;103578.25;4962931;28;114569;-73
2023/02/04 09:22:20;;;;;;;28.58;7.18;;;;;;;11.33;62.13;103586.19;4980517;28;112995;-74
2023/02/04 09:24:47;;;;;;;24.00;7.15;;;;;;;11.37;62.25;103583.50;4961021;28;123729;-74
2023/02/04 09:27:14;;;;;;;27.33;7.50;;;;;;;11.43;62.33;103594.13;4952657;28;122860;-74
2023/02/04 09:29:41;;;;;;;23.73;7.72;;;;;;;11.47;62.26;103585.25;4969688;28;114110;-73
2023/02/04 09:32:08;;;;;;;26.58;7.68;;;;;;;11.50;62.15;103579.91;4971216;28;113850;-74
2023/02/04 09:34:36;;;;;;;27.23;7.75;;;;;;;11.55;62.11;103576.38;4969836;28;123901;-74
2023/02/04 09:37:03;;;;;;;28.42;7.40;;;;;;;11.58;62.22;103581.66;4968397;28;122873;-74
2023/02/04 09:39:30;;;;;;;23.25;7.38;;;;;;;11.61;62.21;103576.34;4970418;28;115371;-74
2023/02/04 09:41:58;;;;;;;27.00;8.07;;;;;;;11.66;61.92;103579.84;4969085;28;116285;-73
2023/02/04 09:44:27;;;;;;;27.10;7.72;;;;;;;11.71;61.79;103583.34;4953581;28;122829;-74
2023/02/04 09:46:57;;;;;;;27.73;7.30;;;;;;;11.73;61.78;103584.22;4970657;28;124279;-73
2023/02/04 09:49:26;;;;;;;24.98;7.40;;;;;;;11.76;61.89;103589.53;4970196;28;114328;-74
2023/02/04 09:51:54;;;;;;;21.40;6.97;;;;;;;11.80;61.74;103585.94;4971699;28;114328;-73
2023/02/04 09:54:22;;;;;;;26.90;7.43;;;;;;;11.83;61.81;103587.72;4970162;28;124382;-74
2023/02/04 09:56:51;;;;;;;27.17;7.00;;;;;;;11.86;61.80;103599.19;4964860;28;123944;-74
2023/02/04 09:59:21;;;;;;;21.83;6.90;;;;;;;11.90;61.83;103597.44;4982797;28;114362;-74
2023/02/04 10:01:56;;;;;;;28.80;7.18;;;;;;;11.95;61.75;103597.41;4965601;28;114483;-74
2023/02/04 10:04:23;;;;;;;29.05;7.18;;;;;;;11.98;61.77;103590.31;4967819;28;122890;-74
2023/02/04 10:06:50;;;;;;;23.17;6.50;;;;;;;12.04;61.77;103594.69;4985835;28;123952;-74
2023/02/04 10:09:17;;;;;;;26.58;5.93;;;;;;;12.08;61.58;103607.06;4961053;28;115007;-74
2023/02/04 10:11:47;;;;;;;26.88;7.32;;;;;;;12.13;61.53;103602.59;4972191;28;114307;-74
2023/02/04 10:14:18;;;;;;;28.65;7.25;;;;;;;12.17;61.52;103599.03;4969150;28;124021;-74
2023/02/04 10:16:53;;;;;;;25.25;6.57;;;;;;;12.25;61.39;103601.63;4969647;28;123967;-74
2023/02/04 10:19:21;;;;;;;25.85;6.38;;;;;;;12.31;61.30;103595.38;4963448;28;114533;-73
2023/02/04 10:21:48;;;;;;;21.70;6.35;;;;;;;12.37;61.25;103590.00;4966941;28;113391;-74
2023/02/04 10:24:19;;;;;;;27.17;7.68;;;;;;;12.42;61.16;103597.03;4962847;28;124004;-74
2023/02/04 10:26:46;;;;;;;25.67;7.68;;;;;;;12.46;60.87;103589.94;4958905;28;125173;-74
2023/02/04 10:29:16;;;;;;;24.75;7.80;;;;;;;12.49;60.58;103599.63;4974355;28;115701;-73
2023/02/04 10:31:46;;;;;;;29.02;7.97;;;;;;;12.51;60.41;103603.16;4975330;28;115069;-73
2023/02/04 10:34:22;;;;;;;24.65;7.63;;;;;;;12.52;60.56;103597.84;4960181;28;124602;-74
2023/02/04 10:36:56;;;;;;;30.17;8.00;;;;;;;12.58;60.60;103603.13;4972949;28;124545;-73
2023/02/04 10:39:28;;;;;;;26.60;7.00;;;;;;;12.64;60.31;103613.69;4956005;28;115753;-74
2023/02/04 10:41:57;;;;;;;26.27;6.13;;;;;;;12.65;60.16;103607.47;4958446;28;114045;-73
2023/02/04 10:44:24;;;;;;;24.45;6.30;;;;;;;12.66;60.14;103614.56;4958049;28;124329;-74
2023/02/04 10:47:08;;;;;;;23.42;6.53;;;;;;;12.68;59.96;103621.63;4957775;28;124698;-73
2023/02/04 10:49:36;;;;;;;29.88;7.22;;;;;;;12.69;59.72;103612.78;4971862;28;113789;-74
2023/02/04 10:52:15;;;;;;;26.92;7.55;;;;;;;12.66;59.38;103619.88;4963791;28;113485;-75
2023/02/04 10:54:42;;;;;;;28.38;6.70;;;;;;;12.65;59.50;103622.53;4964556;28;124302;-73
2023/02/04 10:57:27;;;;;;;27.48;6.38;;;;;;;12.65;59.69;103612.78;4955189;28;123919;-73
2023/02/04 11:00:00;;;;;;;28.23;6.03;;;;;;;12.70;59.46;103614.53;4961927;28;114300;-73
2023/02/04 11:02:44;;;;;;;28.80;6.10;;;;;;;12.74;59.57;103616.28;4956449;28;114628;-73
2023/02/04 11:05:17;;;;;;;26.50;6.57;;;;;;;12.79;59.61;103612.69;4984217;28;123171;-73
2023/02/04 11:07:46;;;;;;;26.00;6.57;;;;;;;12.83;59.17;103610.88;4978698;28;123927;-74
2023/02/04 11:10:16;;;;;;;26.70;5.63;;;;;;;12.83;59.10;103617.06;4964298;28;114071;-71
2023/02/04 11:12:46;;;;;;;29.40;6.22;;;;;;;12.85;59.24;103603.75;4978361;28;114560;-70